sensor_id;sensor_type;location;lat;lon;timestamp;P1;durP1;ratioP1;P2;durP2;ratioP2
56457;SDS011;42360;42.918;12.366;2022-09-03T00:02:12;2.25;;;1.40;;
56457;SDS011;42360;42.918;12.366;2022-09-03T00:04:52;1.33;;;1.23;;
56457;SDS011;42360;42.918;12.366;2022-09-03T00:10:21;2.30;;;1.67;;
56457;SDS011;42360;42.918;12.366;2022-09-03T00:12:51;1.50;;;1.40;;
56457;SDS011;42360;42.918;12.366;2022-09-03T00:15:19;1.83;;;1.30;;
56457;SDS011;42360;42.918;12.366;2022-09-03T00:20:34;2.85;;;1.45;;
56457;SDS011;42360;42.918;12.366;2022-09-03T00:23:17;1.20;;;1.10;;
56457;SDS011;42360;42.918;12.366;2022-09-03T00:25:49;1.63;;;1.17;;
56457;SDS011;42360;42.918;12.366;2022-09-03T00:28:32;5.93;;;1.73;;
56457;SDS011;42360;42.918;12.366;2022-09-03T00:31:10;1.13;;;1.02;;
56457;SDS011;42360;42.918;12.366;2022-09-03T00:33:43;1.45;;;1.35;;
56457;SDS011;42360;42.918;12.366;2022-09-03T00:38:42;2.13;;;1.48;;
56457;SDS011;42360;42.918;12.366;2022-09-03T00:43:52;4.47;;;2.42;;
56457;SDS011;42360;42.918;12.366;2022-09-03T00:49:08;2.17;;;1.98;;
56457;SDS011;42360;42.918;12.366;2022-09-03T00:54:28;2.20;;;1.70;;
56457;SDS011;42360;42.918;12.366;2022-09-03T01:13:02;1.90;;;1.80;;
56457;SDS011;42360;42.918;12.366;2022-09-03T01:16:02;3.28;;;1.90;;
56457;SDS011;42360;42.918;12.366;2022-09-03T01:21:31;1.48;;;1.35;;
56457;SDS011;42360;42.918;12.366;2022-09-03T01:30:03;2.00;;;1.33;;
56457;SDS011;42360;42.918;12.366;2022-09-03T01:40:31;2.10;;;1.33;;
56457;SDS011;42360;42.918;12.366;2022-09-03T01:43:12;3.05;;;1.30;;
56457;SDS011;42360;42.918;12.366;2022-09-03T01:51:29;1.70;;;1.45;;
56457;SDS011;42360;42.918;12.366;2022-09-03T01:54:59;2.33;;;1.30;;
56457;SDS011;42360;42.918;12.366;2022-09-03T01:57:13;2.78;;;1.40;;
56457;SDS011;42360;42.918;12.366;2022-09-03T01:59:48;3.03;;;1.42;;
56457;SDS011;42360;42.918;12.366;2022-09-03T02:02:17;1.33;;;1.20;;
56457;SDS011;42360;42.918;12.366;2022-09-03T02:05:04;3.80;;;1.40;;
56457;SDS011;42360;42.918;12.366;2022-09-03T02:07:36;1.40;;;1.30;;
56457;SDS011;42360;42.918;12.366;2022-09-03T02:10:07;2.10;;;1.55;;
56457;SDS011;42360;42.918;12.366;2022-09-03T02:12:38;2.50;;;1.77;;
56457;SDS011;42360;42.918;12.366;2022-09-03T02:15:11;1.85;;;1.70;;
56457;SDS011;42360;42.918;12.366;2022-09-03T02:17:39;1.35;;;1.25;;
56457;SDS011;42360;42.918;12.366;2022-09-03T02:20:07;2.78;;;1.40;;
56457;SDS011;42360;42.918;12.366;2022-09-03T02:22:36;1.60;;;1.42;;
56457;SDS011;42360;42.918;12.366;2022-09-03T02:25:03;1.63;;;1.52;;
56457;SDS011;42360;42.918;12.366;2022-09-03T02:27:30;2.35;;;1.70;;
56457;SDS011;42360;42.918;12.366;2022-09-03T02:29:56;2.45;;;1.40;;
56457;SDS011;42360;42.918;12.366;2022-09-03T02:32:22;3.55;;;1.48;;
56457;SDS011;42360;42.918;12.366;2022-09-03T02:34:48;1.60;;;1.50;;
56457;SDS011;42360;42.918;12.366;2022-09-03T02:37:14;1.70;;;1.60;;
56457;SDS011;42360;42.918;12.366;2022-09-03T02:39:42;1.75;;;1.65;;
56457;SDS011;42360;42.918;12.366;2022-09-03T02:42:09;2.47;;;2.00;;
56457;SDS011;42360;42.918;12.366;2022-09-03T02:44:47;2.22;;;1.73;;
56457;SDS011;42360;42.918;12.366;2022-09-03T02:47:17;2.45;;;2.25;;
56457;SDS011;42360;42.918;12.366;2022-09-03T02:49:47;2.30;;;1.50;;
56457;SDS011;42360;42.918;12.366;2022-09-03T02:52:13;2.25;;;2.05;;
56457;SDS011;42360;42.918;12.366;2022-09-03T02:54:39;1.75;;;1.65;;
56457;SDS011;42360;42.918;12.366;2022-09-03T02:57:09;1.63;;;1.52;;
56457;SDS011;42360;42.918;12.366;2022-09-03T02:59:37;1.70;;;1.60;;
56457;SDS011;42360;42.918;12.366;2022-09-03T03:02:03;1.55;;;1.45;;
56457;SDS011;42360;42.918;12.366;2022-09-03T03:04:29;2.30;;;1.48;;
56457;SDS011;42360;42.918;12.366;2022-09-03T03:06:55;2.28;;;1.38;;
56457;SDS011;42360;42.918;12.366;2022-09-03T03:09:21;1.98;;;1.40;;
56457;SDS011;42360;42.918;12.366;2022-09-03T03:11:47;1.77;;;1.67;;
56457;SDS011;42360;42.918;12.366;2022-09-03T03:14:18;2.58;;;1.40;;
56457;SDS011;42360;42.918;12.366;2022-09-03T03:16:43;4.53;;;1.65;;
56457;SDS011;42360;42.918;12.366;2022-09-03T03:19:09;1.20;;;1.20;;
56457;SDS011;42360;42.918;12.366;2022-09-03T03:21:35;1.73;;;1.55;;
56457;SDS011;42360;42.918;12.366;2022-09-03T03:24:01;1.83;;;1.73;;
56457;SDS011;42360;42.918;12.366;2022-09-03T03:26:27;1.65;;;1.55;;
56457;SDS011;42360;42.918;12.366;2022-09-03T03:28:57;1.80;;;1.70;;
56457;SDS011;42360;42.918;12.366;2022-09-03T03:31:23;3.72;;;1.50;;
56457;SDS011;42360;42.918;12.366;2022-09-03T03:33:53;2.55;;;1.70;;
56457;SDS011;42360;42.918;12.366;2022-09-03T03:36:20;1.52;;;1.42;;
56457;SDS011;42360;42.918;12.366;2022-09-03T03:38:46;2.38;;;2.17;;
56457;SDS011;42360;42.918;12.366;2022-09-03T03:41:22;1.48;;;1.17;;
56457;SDS011;42360;42.918;12.366;2022-09-03T03:43:55;1.92;;;1.67;;
56457;SDS011;42360;42.918;12.366;2022-09-03T03:46:22;1.85;;;1.75;;
56457;SDS011;42360;42.918;12.366;2022-09-03T03:48:49;1.40;;;1.30;;
56457;SDS011;42360;42.918;12.366;2022-09-03T03:51:16;2.85;;;1.30;;
56457;SDS011;42360;42.918;12.366;2022-09-03T03:53:41;1.65;;;1.55;;
56457;SDS011;42360;42.918;12.366;2022-09-03T03:56:09;2.50;;;1.75;;
56457;SDS011;42360;42.918;12.366;2022-09-03T03:58:36;1.60;;;1.50;;
56457;SDS011;42360;42.918;12.366;2022-09-03T04:01:07;1.52;;;1.42;;
56457;SDS011;42360;42.918;12.366;2022-09-03T04:03:40;1.65;;;1.55;;
56457;SDS011;42360;42.918;12.366;2022-09-03T04:06:07;1.80;;;1.70;;
56457;SDS011;42360;42.918;12.366;2022-09-03T04:08:34;2.53;;;1.60;;
56457;SDS011;42360;42.918;12.366;2022-09-03T04:11:02;2.55;;;1.58;;
56457;SDS011;42360;42.918;12.366;2022-09-03T04:13:32;1.70;;;1.60;;
56457;SDS011;42360;42.918;12.366;2022-09-03T04:16:02;1.80;;;1.70;;
56457;SDS011;42360;42.918;12.366;2022-09-03T04:18:48;3.40;;;1.75;;
56457;SDS011;42360;42.918;12.366;2022-09-03T04:21:18;2.63;;;1.60;;
56457;SDS011;42360;42.918;12.366;2022-09-03T04:23:46;1.80;;;1.70;;
56457;SDS011;42360;42.918;12.366;2022-09-03T04:26:14;2.38;;;1.83;;
56457;SDS011;42360;42.918;12.366;2022-09-03T04:28:40;1.60;;;1.50;;
56457;SDS011;42360;42.918;12.366;2022-09-03T04:31:07;1.83;;;1.70;;
56457;SDS011;42360;42.918;12.366;2022-09-03T04:33:34;2.25;;;2.00;;
56457;SDS011;42360;42.918;12.366;2022-09-03T04:36:08;2.47;;;1.63;;
56457;SDS011;42360;42.918;12.366;2022-09-03T04:38:36;2.00;;;1.80;;
56457;SDS011;42360;42.918;12.366;2022-09-03T04:41:04;1.90;;;1.60;;
56457;SDS011;42360;42.918;12.366;2022-09-03T04:43:30;2.55;;;1.92;;
56457;SDS011;42360;42.918;12.366;2022-09-03T04:45:59;2.15;;;1.40;;
56457;SDS011;42360;42.918;12.366;2022-09-03T04:48:27;2.20;;;1.80;;
56457;SDS011;42360;42.918;12.366;2022-09-03T04:50:53;3.85;;;1.55;;
56457;SDS011;42360;42.918;12.366;2022-09-03T04:53:20;3.53;;;1.60;;
56457;SDS011;42360;42.918;12.366;2022-09-03T04:55:46;2.78;;;1.77;;
56457;SDS011;42360;42.918;12.366;2022-09-03T04:58:12;1.70;;;1.60;;
56457;SDS011;42360;42.918;12.366;2022-09-03T05:00:38;4.05;;;2.33;;
56457;SDS011;42360;42.918;12.366;2022-09-03T05:03:04;4.35;;;1.60;;
56457;SDS011;42360;42.918;12.366;2022-09-03T05:05:30;3.17;;;1.65;;
56457;SDS011;42360;42.918;12.366;2022-09-03T05:07:58;2.30;;;2.00;;
56457;SDS011;42360;42.918;12.366;2022-09-03T05:10:25;1.80;;;1.70;;
56457;SDS011;42360;42.918;12.366;2022-09-03T05:13:03;1.85;;;1.75;;
56457;SDS011;42360;42.918;12.366;2022-09-03T05:15:37;1.88;;;1.77;;
56457;SDS011;42360;42.918;12.366;2022-09-03T05:18:02;5.15;;;2.45;;
56457;SDS011;42360;42.918;12.366;2022-09-03T05:20:28;2.78;;;2.20;;
56457;SDS011;42360;42.918;12.366;2022-09-03T05:23:04;4.22;;;2.63;;
56457;SDS011;42360;42.918;12.366;2022-09-03T05:25:29;3.13;;;2.10;;
56457;SDS011;42360;42.918;12.366;2022-09-03T05:27:58;2.83;;;1.90;;
56457;SDS011;42360;42.918;12.366;2022-09-03T05:30:24;2.40;;;2.20;;
56457;SDS011;42360;42.918;12.366;2022-09-03T05:32:50;3.13;;;2.10;;
56457;SDS011;42360;42.918;12.366;2022-09-03T05:35:16;2.72;;;2.20;;
56457;SDS011;42360;42.918;12.366;2022-09-03T05:37:42;3.95;;;2.05;;
56457;SDS011;42360;42.918;12.366;2022-09-03T05:40:07;2.67;;;2.00;;
56457;SDS011;42360;42.918;12.366;2022-09-03T05:42:35;1.95;;;1.70;;
56457;SDS011;42360;42.918;12.366;2022-09-03T05:45:05;3.20;;;2.00;;
56457;SDS011;42360;42.918;12.366;2022-09-03T05:47:36;3.15;;;2.10;;
56457;SDS011;42360;42.918;12.366;2022-09-03T05:50:04;2.45;;;2.25;;
56457;SDS011;42360;42.918;12.366;2022-09-03T05:52:31;25.08;;;9.57;;
56457;SDS011;42360;42.918;12.366;2022-09-03T05:54:57;7.55;;;4.28;;
56457;SDS011;42360;42.918;12.366;2022-09-03T05:57:22;5.78;;;3.70;;
56457;SDS011;42360;42.918;12.366;2022-09-03T05:59:48;9.02;;;4.15;;
56457;SDS011;42360;42.918;12.366;2022-09-03T06:02:14;5.05;;;3.63;;
56457;SDS011;42360;42.918;12.366;2022-09-03T06:04:40;4.05;;;3.58;;
56457;SDS011;42360;42.918;12.366;2022-09-03T06:07:06;6.93;;;4.30;;
56457;SDS011;42360;42.918;12.366;2022-09-03T06:09:32;4.43;;;3.45;;
56457;SDS011;42360;42.918;12.366;2022-09-03T06:11:58;4.22;;;3.60;;
56457;SDS011;42360;42.918;12.366;2022-09-03T06:14:23;4.15;;;3.25;;
56457;SDS011;42360;42.918;12.366;2022-09-03T06:16:49;3.63;;;3.33;;
56457;SDS011;42360;42.918;12.366;2022-09-03T06:19:16;2.55;;;2.35;;
56457;SDS011;42360;42.918;12.366;2022-09-03T06:21:43;7.80;;;3.03;;
56457;SDS011;42360;42.918;12.366;2022-09-03T06:24:13;4.25;;;3.00;;
56457;SDS011;42360;42.918;12.366;2022-09-03T06:26:43;2.50;;;2.30;;
56457;SDS011;42360;42.918;12.366;2022-09-03T06:29:09;3.70;;;2.58;;
56457;SDS011;42360;42.918;12.366;2022-09-03T06:31:35;5.72;;;3.35;;
56457;SDS011;42360;42.918;12.366;2022-09-03T06:34:01;4.82;;;2.88;;
56457;SDS011;42360;42.918;12.366;2022-09-03T06:36:27;3.78;;;2.80;;
56457;SDS011;42360;42.918;12.366;2022-09-03T06:38:54;4.88;;;3.08;;
56457;SDS011;42360;42.918;12.366;2022-09-03T06:41:24;4.43;;;2.97;;
56457;SDS011;42360;42.918;12.366;2022-09-03T06:43:52;4.22;;;3.13;;
56457;SDS011;42360;42.918;12.366;2022-09-03T06:46:19;3.65;;;3.08;;
56457;SDS011;42360;42.918;12.366;2022-09-03T06:48:47;3.17;;;2.88;;
56457;SDS011;42360;42.918;12.366;2022-09-03T06:51:14;3.95;;;3.30;;
56457;SDS011;42360;42.918;12.366;2022-09-03T06:53:42;4.03;;;3.72;;
56457;SDS011;42360;42.918;12.366;2022-09-03T06:56:10;5.07;;;3.25;;
56457;SDS011;42360;42.918;12.366;2022-09-03T06:58:38;5.22;;;3.35;;
56457;SDS011;42360;42.918;12.366;2022-09-03T07:01:08;5.63;;;3.30;;
56457;SDS011;42360;42.918;12.366;2022-09-03T07:03:35;4.07;;;3.20;;
56457;SDS011;42360;42.918;12.366;2022-09-03T07:06:06;3.20;;;2.90;;
56457;SDS011;42360;42.918;12.366;2022-09-03T07:08:42;6.18;;;3.75;;
56457;SDS011;42360;42.918;12.366;2022-09-03T07:11:09;3.97;;;3.67;;
56457;SDS011;42360;42.918;12.366;2022-09-03T07:13:40;3.38;;;2.50;;
56457;SDS011;42360;42.918;12.366;2022-09-03T07:16:11;4.68;;;3.20;;
56457;SDS011;42360;42.918;12.366;2022-09-03T07:18:38;3.13;;;2.75;;
56457;SDS011;42360;42.918;12.366;2022-09-03T07:21:08;3.47;;;2.92;;
56457;SDS011;42360;42.918;12.366;2022-09-03T07:23:36;4.07;;;2.72;;
56457;SDS011;42360;42.918;12.366;2022-09-03T07:26:04;3.30;;;2.38;;
56457;SDS011;42360;42.918;12.366;2022-09-03T07:28:30;4.57;;;2.55;;
56457;SDS011;42360;42.918;12.366;2022-09-03T07:31:00;3.78;;;2.30;;
56457;SDS011;42360;42.918;12.366;2022-09-03T07:33:28;4.00;;;2.40;;
56457;SDS011;42360;42.918;12.366;2022-09-03T07:35:55;2.95;;;2.30;;
56457;SDS011;42360;42.918;12.366;2022-09-03T07:38:21;3.42;;;2.50;;
56457;SDS011;42360;42.918;12.366;2022-09-03T07:40:47;3.42;;;2.10;;
56457;SDS011;42360;42.918;12.366;2022-09-03T07:43:13;3.55;;;2.75;;
56457;SDS011;42360;42.918;12.366;2022-09-03T07:45:39;4.57;;;3.15;;
56457;SDS011;42360;42.918;12.366;2022-09-03T07:48:05;5.80;;;3.83;;
56457;SDS011;42360;42.918;12.366;2022-09-03T07:50:31;4.93;;;3.53;;
56457;SDS011;42360;42.918;12.366;2022-09-03T07:53:03;6.18;;;3.50;;
56457;SDS011;42360;42.918;12.366;2022-09-03T07:55:28;3.45;;;3.15;;
56457;SDS011;42360;42.918;12.366;2022-09-03T07:57:55;5.63;;;3.15;;
56457;SDS011;42360;42.918;12.366;2022-09-03T08:00:21;5.93;;;4.35;;
56457;SDS011;42360;42.918;12.366;2022-09-03T08:02:46;3.60;;;3.03;;
56457;SDS011;42360;42.918;12.366;2022-09-03T08:05:12;4.22;;;3.33;;
56457;SDS011;42360;42.918;12.366;2022-09-03T08:07:38;3.60;;;3.30;;
56457;SDS011;42360;42.918;12.366;2022-09-03T08:10:03;5.63;;;3.53;;
56457;SDS011;42360;42.918;12.366;2022-09-03T08:12:30;3.92;;;2.70;;
56457;SDS011;42360;42.918;12.366;2022-09-03T08:14:56;4.55;;;3.80;;
56457;SDS011;42360;42.918;12.366;2022-09-03T08:17:22;6.95;;;3.95;;
56457;SDS011;42360;42.918;12.366;2022-09-03T08:19:48;3.83;;;3.38;;
56457;SDS011;42360;42.918;12.366;2022-09-03T08:22:15;6.55;;;4.00;;
56457;SDS011;42360;42.918;12.366;2022-09-03T08:24:40;3.50;;;3.20;;
56457;SDS011;42360;42.918;12.366;2022-09-03T08:27:06;3.05;;;2.75;;
56457;SDS011;42360;42.918;12.366;2022-09-03T08:29:32;3.30;;;3.00;;
56457;SDS011;42360;42.918;12.366;2022-09-03T08:31:58;4.97;;;3.17;;
56457;SDS011;42360;42.918;12.366;2022-09-03T08:34:24;4.65;;;3.00;;
56457;SDS011;42360;42.918;12.366;2022-09-03T08:36:50;5.35;;;3.38;;
56457;SDS011;42360;42.918;12.366;2022-09-03T08:39:17;3.83;;;2.90;;
56457;SDS011;42360;42.918;12.366;2022-09-03T08:52:26;4.43;;;3.63;;
56457;SDS011;42360;42.918;12.366;2022-09-03T09:00:49;5.05;;;3.17;;
56457;SDS011;42360;42.918;12.366;2022-09-03T09:03:27;8.63;;;4.55;;
56457;SDS011;42360;42.918;12.366;2022-09-03T09:09:11;4.22;;;2.80;;
56457;SDS011;42360;42.918;12.366;2022-09-03T09:20:30;6.53;;;3.10;;
56457;SDS011;42360;42.918;12.366;2022-09-03T09:23:00;3.88;;;2.53;;
56457;SDS011;42360;42.918;12.366;2022-09-03T09:25:28;5.88;;;2.95;;
56457;SDS011;42360;42.918;12.366;2022-09-03T09:28:01;4.30;;;3.90;;
56457;SDS011;42360;42.918;12.366;2022-09-03T09:30:29;5.15;;;3.70;;
56457;SDS011;42360;42.918;12.366;2022-09-03T09:32:56;8.15;;;3.90;;
56457;SDS011;42360;42.918;12.366;2022-09-03T09:35:22;4.68;;;3.30;;
56457;SDS011;42360;42.918;12.366;2022-09-03T09:37:55;5.57;;;3.15;;
56457;SDS011;42360;42.918;12.366;2022-09-03T09:40:26;6.93;;;3.17;;
56457;SDS011;42360;42.918;12.366;2022-09-03T09:43:03;4.55;;;3.13;;
56457;SDS011;42360;42.918;12.366;2022-09-03T09:45:37;4.18;;;2.88;;
56457;SDS011;42360;42.918;12.366;2022-09-03T09:48:14;6.60;;;3.65;;
56457;SDS011;42360;42.918;12.366;2022-09-03T09:51:17;3.72;;;2.78;;
56457;SDS011;42360;42.918;12.366;2022-09-03T09:56:22;5.05;;;3.70;;
56457;SDS011;42360;42.918;12.366;2022-09-03T09:58:48;5.65;;;3.50;;
56457;SDS011;42360;42.918;12.366;2022-09-03T10:01:17;10.18;;;4.80;;
56457;SDS011;42360;42.918;12.366;2022-09-03T10:03:55;6.78;;;4.40;;
56457;SDS011;42360;42.918;12.366;2022-09-03T10:06:22;5.40;;;4.65;;
56457;SDS011;42360;42.918;12.366;2022-09-03T10:09:11;6.72;;;4.20;;
56457;SDS011;42360;42.918;12.366;2022-09-03T10:11:43;4.30;;;3.55;;
56457;SDS011;42360;42.918;12.366;2022-09-03T10:14:17;4.88;;;3.13;;
56457;SDS011;42360;42.918;12.366;2022-09-03T10:16:49;5.45;;;3.50;;
56457;SDS011;42360;42.918;12.366;2022-09-03T10:19:22;8.85;;;3.90;;
56457;SDS011;42360;42.918;12.366;2022-09-03T10:22:00;53.35;;;9.43;;
56457;SDS011;42360;42.918;12.366;2022-09-03T10:24:37;30.50;;;5.53;;
56457;SDS011;42360;42.918;12.366;2022-09-03T10:27:20;6.53;;;4.18;;
56457;SDS011;42360;42.918;12.366;2022-09-03T10:29:47;8.57;;;5.18;;
56457;SDS011;42360;42.918;12.366;2022-09-03T10:37:38;5.57;;;4.38;;
56457;SDS011;42360;42.918;12.366;2022-09-03T10:40:28;5.28;;;3.53;;
56457;SDS011;42360;42.918;12.366;2022-09-03T10:46:25;5.10;;;4.00;;
56457;SDS011;42360;42.918;12.366;2022-09-03T10:51:44;7.63;;;4.93;;
56457;SDS011;42360;42.918;12.366;2022-09-03T10:54:21;5.50;;;4.15;;
56457;SDS011;42360;42.918;12.366;2022-09-03T10:57:07;6.20;;;4.78;;
56457;SDS011;42360;42.918;12.366;2022-09-03T11:18:43;7.50;;;5.03;;
56457;SDS011;42360;42.918;12.366;2022-09-03T11:21:13;6.13;;;4.38;;
56457;SDS011;42360;42.918;12.366;2022-09-03T11:23:42;5.45;;;4.57;;
56457;SDS011;42360;42.918;12.366;2022-09-03T11:26:10;6.32;;;4.80;;
56457;SDS011;42360;42.918;12.366;2022-09-03T11:31:35;6.20;;;4.25;;
56457;SDS011;42360;42.918;12.366;2022-09-03T11:34:25;5.22;;;4.20;;
56457;SDS011;42360;42.918;12.366;2022-09-03T11:37:05;6.38;;;4.70;;
56457;SDS011;42360;42.918;12.366;2022-09-03T11:39:38;6.63;;;3.88;;
56457;SDS011;42360;42.918;12.366;2022-09-03T11:42:11;5.47;;;3.67;;
56457;SDS011;42360;42.918;12.366;2022-09-03T11:44:45;9.23;;;4.63;;
56457;SDS011;42360;42.918;12.366;2022-09-03T11:47:37;6.17;;;4.40;;
56457;SDS011;42360;42.918;12.366;2022-09-03T11:50:15;7.10;;;4.13;;
56457;SDS011;42360;42.918;12.366;2022-09-03T11:52:44;5.57;;;3.58;;
56457;SDS011;42360;42.918;12.366;2022-09-03T11:55:09;3.85;;;3.55;;
56457;SDS011;42360;42.918;12.366;2022-09-03T11:57:39;3.47;;;3.10;;
56457;SDS011;42360;42.918;12.366;2022-09-03T12:00:08;5.53;;;2.80;;
56457;SDS011;42360;42.918;12.366;2022-09-03T12:02:43;4.05;;;2.97;;
56457;SDS011;42360;42.918;12.366;2022-09-03T12:05:21;5.05;;;3.05;;
56457;SDS011;42360;42.918;12.366;2022-09-03T12:07:57;4.57;;;3.07;;
56457;SDS011;42360;42.918;12.366;2022-09-03T12:10:53;4.60;;;3.38;;
56457;SDS011;42360;42.918;12.366;2022-09-03T12:13:51;4.13;;;3.08;;
56457;SDS011;42360;42.918;12.366;2022-09-03T12:19:35;5.07;;;3.17;;
56457;SDS011;42360;42.918;12.366;2022-09-03T12:22:02;5.25;;;3.97;;
56457;SDS011;42360;42.918;12.366;2022-09-03T12:24:29;6.00;;;3.88;;
56457;SDS011;42360;42.918;12.366;2022-09-03T12:26:59;6.47;;;4.18;;
56457;SDS011;42360;42.918;12.366;2022-09-03T12:29:27;4.50;;;3.60;;
56457;SDS011;42360;42.918;12.366;2022-09-03T12:31:54;6.25;;;4.60;;
56457;SDS011;42360;42.918;12.366;2022-09-03T12:34:20;5.15;;;3.47;;
56457;SDS011;42360;42.918;12.366;2022-09-03T12:36:51;3.70;;;3.20;;
56457;SDS011;42360;42.918;12.366;2022-09-03T12:39:21;6.50;;;3.65;;
56457;SDS011;42360;42.918;12.366;2022-09-03T12:44:32;3.85;;;3.20;;
56457;SDS011;42360;42.918;12.366;2022-09-03T12:49:45;3.95;;;3.10;;
56457;SDS011;42360;42.918;12.366;2022-09-03T13:00:20;3.80;;;3.05;;
56457;SDS011;42360;42.918;12.366;2022-09-03T13:05:16;4.05;;;3.17;;
56457;SDS011;42360;42.918;12.366;2022-09-03T13:07:55;3.38;;;2.70;;
56457;SDS011;42360;42.918;12.366;2022-09-03T13:10:28;3.83;;;3.22;;
56457;SDS011;42360;42.918;12.366;2022-09-03T13:12:58;5.30;;;2.97;;
56457;SDS011;42360;42.918;12.366;2022-09-03T13:15:26;3.55;;;2.95;;
56457;SDS011;42360;42.918;12.366;2022-09-03T13:18:10;4.22;;;3.03;;
56457;SDS011;42360;42.918;12.366;2022-09-03T13:23:31;2.85;;;2.50;;
56457;SDS011;42360;42.918;12.366;2022-09-03T13:28:50;3.20;;;2.90;;
56457;SDS011;42360;42.918;12.366;2022-09-03T13:34:05;3.53;;;3.17;;
56457;SDS011;42360;42.918;12.366;2022-09-03T13:36:37;4.05;;;2.80;;
56457;SDS011;42360;42.918;12.366;2022-09-03T13:39:23;3.63;;;2.80;;
56457;SDS011;42360;42.918;12.366;2022-09-03T13:42:05;3.05;;;2.58;;
56457;SDS011;42360;42.918;12.366;2022-09-03T13:44:39;5.90;;;4.60;;
56457;SDS011;42360;42.918;12.366;2022-09-03T13:47:11;3.60;;;3.13;;
56457;SDS011;42360;42.918;12.366;2022-09-03T13:49:55;5.90;;;3.10;;
56457;SDS011;42360;42.918;12.366;2022-09-03T13:57:56;3.05;;;2.65;;
56457;SDS011;42360;42.918;12.366;2022-09-03T14:00:33;4.22;;;3.03;;
56457;SDS011;42360;42.918;12.366;2022-09-03T14:08:34;3.28;;;2.58;;
56457;SDS011;42360;42.918;12.366;2022-09-03T14:19:04;3.60;;;2.78;;
56457;SDS011;42360;42.918;12.366;2022-09-03T14:21:40;3.38;;;2.90;;
56457;SDS011;42360;42.918;12.366;2022-09-03T14:24:30;3.38;;;2.53;;
56457;SDS011;42360;42.918;12.366;2022-09-03T14:27:10;4.47;;;3.60;;
56457;SDS011;42360;42.918;12.366;2022-09-03T14:29:36;6.93;;;5.40;;
56457;SDS011;42360;42.918;12.366;2022-09-03T14:32:05;9.50;;;5.78;;
56457;SDS011;42360;42.918;12.366;2022-09-03T14:43:49;5.80;;;4.97;;
56457;SDS011;42360;42.918;12.366;2022-09-03T14:54:14;5.95;;;4.78;;
56457;SDS011;42360;42.918;12.366;2022-09-03T15:10:58;3.28;;;2.88;;
56457;SDS011;42360;42.918;12.366;2022-09-03T15:13:29;5.32;;;2.97;;
56457;SDS011;42360;42.918;12.366;2022-09-03T15:16:00;3.28;;;2.95;;
56457;SDS011;42360;42.918;12.366;2022-09-03T15:18:57;3.45;;;2.80;;
56457;SDS011;42360;42.918;12.366;2022-09-03T15:21:42;2.78;;;2.20;;
56457;SDS011;42360;42.918;12.366;2022-09-03T15:24:34;3.15;;;2.50;;
56457;SDS011;42360;42.918;12.366;2022-09-03T15:30:11;3.42;;;2.58;;
56457;SDS011;42360;42.918;12.366;2022-09-03T15:38:12;3.95;;;2.50;;
56457;SDS011;42360;42.918;12.366;2022-09-03T15:43:14;3.33;;;2.28;;
56457;SDS011;42360;42.918;12.366;2022-09-03T15:45:53;6.30;;;2.88;;
56457;SDS011;42360;42.918;12.366;2022-09-03T15:48:27;3.95;;;2.60;;
56457;SDS011;42360;42.918;12.366;2022-09-03T15:56:11;5.47;;;2.88;;
56457;SDS011;42360;42.918;12.366;2022-09-03T16:01:50;5.35;;;3.10;;
56457;SDS011;42360;42.918;12.366;2022-09-03T16:04:21;3.72;;;2.65;;
56457;SDS011;42360;42.918;12.366;2022-09-03T16:07:40;4.82;;;2.83;;
56457;SDS011;42360;42.918;12.366;2022-09-03T16:12:38;4.82;;;3.53;;
56457;SDS011;42360;42.918;12.366;2022-09-03T16:15:21;7.65;;;4.32;;
56457;SDS011;42360;42.918;12.366;2022-09-03T16:17:57;4.97;;;4.22;;
56457;SDS011;42360;42.918;12.366;2022-09-03T16:26:53;5.43;;;3.60;;
56457;SDS011;42360;42.918;12.366;2022-09-03T16:29:10;5.55;;;3.85;;
56457;SDS011;42360;42.918;12.366;2022-09-03T16:37:05;9.38;;;6.25;;
56457;SDS011;42360;42.918;12.366;2022-09-03T16:39:57;11.27;;;7.28;;
56457;SDS011;42360;42.918;12.366;2022-09-03T16:50:50;6.05;;;5.30;;
56457;SDS011;42360;42.918;12.366;2022-09-03T16:53:39;3.55;;;3.20;;
56457;SDS011;42360;42.918;12.366;2022-09-03T17:29:24;3.67;;;3.08;;
56457;SDS011;42360;42.918;12.366;2022-09-03T17:31:59;3.85;;;2.60;;
56457;SDS011;42360;42.918;12.366;2022-09-03T17:34:47;4.55;;;3.40;;
56457;SDS011;42360;42.918;12.366;2022-09-03T17:37:26;5.13;;;3.05;;
56457;SDS011;42360;42.918;12.366;2022-09-03T17:43:06;4.07;;;2.90;;
56457;SDS011;42360;42.918;12.366;2022-09-03T17:46:20;4.88;;;3.45;;
56457;SDS011;42360;42.918;12.366;2022-09-03T17:48:51;4.63;;;2.72;;
56457;SDS011;42360;42.918;12.366;2022-09-03T17:54:06;4.15;;;3.17;;
56457;SDS011;42360;42.918;12.366;2022-09-03T18:04:47;4.93;;;4.40;;
56457;SDS011;42360;42.918;12.366;2022-09-03T18:07:28;6.40;;;3.72;;
56457;SDS011;42360;42.918;12.366;2022-09-03T18:10:24;5.50;;;3.72;;
56457;SDS011;42360;42.918;12.366;2022-09-03T18:16:06;5.23;;;3.67;;
56457;SDS011;42360;42.918;12.366;2022-09-03T18:18:36;6.95;;;3.72;;
56457;SDS011;42360;42.918;12.366;2022-09-03T18:21:04;31.77;;;20.27;;
56457;SDS011;42360;42.918;12.366;2022-09-03T18:27:16;22.05;;;14.30;;
56457;SDS011;42360;42.918;12.366;2022-09-03T18:35:39;25.25;;;14.00;;
56457;SDS011;42360;42.918;12.366;2022-09-03T18:38:28;62.38;;;36.47;;
56457;SDS011;42360;42.918;12.366;2022-09-03T18:41:30;52.55;;;29.30;;
56457;SDS011;42360;42.918;12.366;2022-09-03T18:50:41;7.00;;;4.57;;
56457;SDS011;42360;42.918;12.366;2022-09-03T18:59:25;5.75;;;4.43;;
56457;SDS011;42360;42.918;12.366;2022-09-03T19:06:02;10.27;;;7.15;;
56457;SDS011;42360;42.918;12.366;2022-09-03T19:14:42;8.35;;;5.80;;
56457;SDS011;42360;42.918;12.366;2022-09-03T19:17:48;7.78;;;5.10;;
56457;SDS011;42360;42.918;12.366;2022-09-03T19:20:38;8.13;;;5.20;;
56457;SDS011;42360;42.918;12.366;2022-09-03T19:23:24;5.45;;;4.10;;
56457;SDS011;42360;42.918;12.366;2022-09-03T19:26:24;5.18;;;4.20;;
56457;SDS011;42360;42.918;12.366;2022-09-03T19:30:12;6.10;;;3.88;;
56457;SDS011;42360;42.918;12.366;2022-09-03T19:36:09;3.97;;;3.20;;
56457;SDS011;42360;42.918;12.366;2022-09-03T19:52:17;4.47;;;3.40;;
56457;SDS011;42360;42.918;12.366;2022-09-03T19:55:05;8.63;;;4.30;;
56457;SDS011;42360;42.918;12.366;2022-09-03T19:57:52;6.85;;;4.70;;
56457;SDS011;42360;42.918;12.366;2022-09-03T20:00:38;9.52;;;5.68;;
56457;SDS011;42360;42.918;12.366;2022-09-03T20:03:23;14.52;;;9.50;;
56457;SDS011;42360;42.918;12.366;2022-09-03T20:06:08;5.20;;;4.40;;
56457;SDS011;42360;42.918;12.366;2022-09-03T20:08:52;8.00;;;5.72;;
56457;SDS011;42360;42.918;12.366;2022-09-03T20:11:40;7.90;;;6.03;;
56457;SDS011;42360;42.918;12.366;2022-09-03T20:14:09;7.78;;;5.53;;
56457;SDS011;42360;42.918;12.366;2022-09-03T20:19:23;8.88;;;4.90;;
56457;SDS011;42360;42.918;12.366;2022-09-03T20:21:57;5.05;;;4.55;;
56457;SDS011;42360;42.918;12.366;2022-09-03T20:24:31;6.65;;;4.85;;
56457;SDS011;42360;42.918;12.366;2022-09-03T20:27:11;9.95;;;6.47;;
56457;SDS011;42360;42.918;12.366;2022-09-03T20:30:08;9.57;;;5.45;;
56457;SDS011;42360;42.918;12.366;2022-09-03T20:35:32;9.30;;;5.50;;
56457;SDS011;42360;42.918;12.366;2022-09-03T20:38:25;8.82;;;5.47;;
56457;SDS011;42360;42.918;12.366;2022-09-03T20:44:00;9.05;;;5.45;;
56457;SDS011;42360;42.918;12.366;2022-09-03T20:49:21;5.82;;;5.00;;
56457;SDS011;42360;42.918;12.366;2022-09-03T20:52:02;6.40;;;4.43;;
56457;SDS011;42360;42.918;12.366;2022-09-03T20:57:03;5.85;;;4.55;;
56457;SDS011;42360;42.918;12.366;2022-09-03T21:05:00;7.07;;;4.72;;